createdAt,value
2018-07-10T00:00:37.875Z,22.13
2018-07-10T00:01:37.881Z,22.13
2018-07-10T00:02:37.878Z,22.06
2018-07-10T00:03:37.865Z,22.13
2018-07-10T00:04:38.183Z,22.13
2018-07-10T00:05:37.891Z,22.13
2018-07-10T00:06:38.008Z,22.06
2018-07-10T00:07:37.868Z,22.06
2018-07-10T00:08:37.896Z,22.13
2018-07-10T00:09:37.938Z,22.13
2018-07-10T00:10:37.880Z,22.13
2018-07-10T00:11:37.894Z,22.13
2018-07-10T00:12:37.866Z,22.13
2018-07-10T00:13:37.871Z,22.13
2018-07-10T00:14:37.869Z,22.13
2018-07-10T00:15:37.967Z,22.13
2018-07-10T00:16:38.090Z,22.06
2018-07-10T00:17:37.913Z,22.13
2018-07-10T00:18:37.908Z,22.13
2018-07-10T00:19:37.942Z,22.06
2018-07-10T00:20:37.870Z,22.06
2018-07-10T00:21:37.865Z,22
2018-07-10T00:22:37.996Z,22
2018-07-10T00:23:38.074Z,22
2018-07-10T00:24:37.962Z,21.94
2018-07-10T00:25:37.872Z,21.94
2018-07-10T00:26:37.921Z,21.94
2018-07-10T00:27:37.900Z,21.94
2018-07-10T00:28:37.887Z,21.94
2018-07-10T00:29:38.044Z,21.94
2018-07-10T00:30:37.875Z,21.94
2018-07-10T00:31:37.879Z,21.94
2018-07-10T00:32:37.888Z,21.94
2018-07-10T00:33:37.912Z,21.94
2018-07-10T00:34:37.888Z,21.94
2018-07-10T00:35:38.121Z,21.87
2018-07-10T00:36:38.035Z,21.94
2018-07-10T00:37:37.907Z,21.94
2018-07-10T00:38:37.914Z,21.94
2018-07-10T00:39:37.990Z,21.94
2018-07-10T00:40:37.915Z,21.94
2018-07-10T00:41:38.176Z,21.94
2018-07-10T00:42:38.074Z,21.94
2018-07-10T00:43:37.899Z,21.94
2018-07-10T00:44:37.963Z,21.87
2018-07-10T00:45:37.869Z,21.94
2018-07-10T00:46:37.889Z,21.94
2018-07-10T00:47:38.078Z,21.87
2018-07-10T00:48:38.051Z,21.87
2018-07-10T00:49:38.060Z,21.87
2018-07-10T00:50:37.893Z,21.87
2018-07-10T00:51:38.211Z,21.87
2018-07-10T00:52:37.949Z,21.87
2018-07-10T00:53:37.888Z,21.81
2018-07-10T00:54:37.967Z,21.81
2018-07-10T00:55:37.901Z,21.81
2018-07-10T00:56:38.138Z,21.81
2018-07-10T00:57:37.879Z,21.81
2018-07-10T00:58:37.895Z,21.81
2018-07-10T00:59:37.882Z,21.81
2018-07-10T01:00:37.900Z,21.81
2018-07-10T01:01:37.929Z,21.81
2018-07-10T01:02:38.104Z,21.81
2018-07-10T01:03:37.924Z,21.81
2018-07-10T01:04:37.921Z,21.87
2018-07-10T01:05:37.894Z,21.87
2018-07-10T01:06:37.934Z,21.81
2018-07-10T01:07:37.939Z,21.81
2018-07-10T01:08:37.932Z,21.81
2018-07-10T01:09:37.889Z,21.81
2018-07-10T01:10:37.918Z,21.81
2018-07-10T01:11:37.925Z,21.75
2018-07-10T01:12:37.998Z,21.75
2018-07-10T01:13:37.908Z,21.81
2018-07-10T01:14:37.915Z,21.75
2018-07-10T01:15:37.932Z,21.75
2018-07-10T01:16:37.940Z,21.69
2018-07-10T01:17:37.895Z,21.69
2018-07-10T01:18:37.909Z,21.69
2018-07-10T01:19:37.914Z,21.69
2018-07-10T01:20:37.934Z,21.69
2018-07-10T01:21:38.090Z,21.69
2018-07-10T01:22:37.926Z,21.62
2018-07-10T01:23:37.918Z,21.62
2018-07-10T01:24:38.036Z,21.62
2018-07-10T01:25:38.076Z,21.62
2018-07-10T01:26:37.926Z,21.62
2018-07-10T01:27:38.128Z,21.62
2018-07-10T01:28:37.976Z,21.62
2018-07-10T01:29:37.914Z,21.62
2018-07-10T01:30:37.936Z,21.62
2018-07-10T01:31:37.951Z,21.62
2018-07-10T01:32:37.916Z,21.62
2018-07-10T01:33:38.488Z,21.62
2018-07-10T01:34:38.084Z,21.62
2018-07-10T01:35:37.925Z,21.62
2018-07-10T01:36:37.919Z,21.62
2018-07-10T01:37:37.995Z,21.62
2018-07-10T01:38:38.077Z,21.56
2018-07-10T01:39:38.059Z,21.62
2018-07-10T01:40:37.924Z,21.62
2018-07-10T01:41:37.952Z,21.56
2018-07-10T01:42:37.951Z,21.56
2018-07-10T01:43:38.064Z,21.56
2018-07-10T01:44:38.091Z,21.56
2018-07-10T01:45:37.939Z,21.56
2018-07-10T01:46:37.969Z,21.5
2018-07-10T01:47:38.054Z,21.5
2018-07-10T01:48:38.021Z,21.5
2018-07-10T01:49:37.950Z,21.44
2018-07-10T01:50:37.912Z,21.44
2018-07-10T01:51:37.918Z,21.5
2018-07-10T01:52:38.200Z,21.44
2018-07-10T01:53:37.936Z,21.44
2018-07-10T01:54:37.926Z,21.44
2018-07-10T01:55:37.961Z,21.37
2018-07-10T01:56:38.980Z,21.44
2018-07-10T01:57:37.944Z,21.44
2018-07-10T01:58:37.977Z,21.37
2018-07-10T01:59:37.961Z,21.37
2018-07-10T02:00:37.958Z,21.31
2018-07-10T02:01:38.006Z,21.37
2018-07-10T02:02:37.954Z,21.37
2018-07-10T02:03:38.324Z,21.37
2018-07-10T02:04:37.953Z,21.37
2018-07-10T02:05:38.061Z,21.37
2018-07-10T02:06:37.953Z,21.31
2018-07-10T02:07:37.988Z,21.37
2018-07-10T02:08:37.997Z,21.25
2018-07-10T02:09:37.976Z,21.19
2018-07-10T02:10:37.960Z,21.19
2018-07-10T02:11:37.949Z,21.19
2018-07-10T02:12:37.922Z,21.12
2018-07-10T02:13:37.979Z,21.12
2018-07-10T02:14:37.941Z,21.06
2018-07-10T02:15:37.995Z,21
2018-07-10T02:16:38.011Z,21
2018-07-10T02:17:37.956Z,21.06
2018-07-10T02:18:38.048Z,21.06
2018-07-10T02:19:38.017Z,21
2018-07-10T02:20:37.980Z,21
2018-07-10T02:21:37.977Z,21
2018-07-10T02:22:37.958Z,21
2018-07-10T02:23:37.947Z,21
2018-07-10T02:24:37.955Z,20.94
2018-07-10T02:25:37.982Z,20.94
2018-07-10T02:26:38.009Z,20.94
2018-07-10T02:27:37.975Z,20.94
2018-07-10T02:28:38.037Z,20.88
2018-07-10T02:29:38.027Z,20.88
2018-07-10T02:30:37.966Z,20.88
2018-07-10T02:31:38.091Z,20.88
2018-07-10T02:32:38.092Z,20.81
2018-07-10T02:33:38.127Z,20.75
2018-07-10T02:34:38.077Z,20.81
2018-07-10T02:35:38.071Z,20.81
2018-07-10T02:36:38.436Z,20.81
2018-07-10T02:37:38.217Z,20.81
2018-07-10T02:38:38.105Z,20.81
2018-07-10T02:39:38.019Z,20.81
2018-07-10T02:40:38.094Z,20.88
2018-07-10T02:41:38.070Z,20.81
2018-07-10T02:42:38.114Z,20.88
2018-07-10T02:43:37.994Z,20.88
2018-07-10T02:44:38.153Z,20.81
2018-07-10T02:45:38.088Z,20.81
2018-07-10T02:46:38.002Z,20.81
2018-07-10T02:47:38.059Z,20.81
2018-07-10T02:48:38.036Z,20.88
2018-07-10T02:49:38.050Z,20.81
2018-07-10T02:50:38.123Z,20.88
2018-07-10T02:51:38.073Z,20.88
2018-07-10T02:52:38.119Z,20.88
2018-07-10T02:53:38.062Z,20.88
2018-07-10T02:54:38.039Z,20.88
2018-07-10T02:55:37.986Z,20.88
2018-07-10T02:56:38.121Z,20.88
2018-07-10T02:57:38.107Z,20.88
2018-07-10T02:58:38.254Z,20.88
2018-07-10T02:59:38.070Z,20.88
2018-07-10T03:00:38.001Z,20.88
2018-07-10T03:01:38.030Z,20.88
2018-07-10T03:02:38.015Z,20.88
2018-07-10T03:03:37.987Z,20.88
2018-07-10T03:04:38.101Z,20.88
2018-07-10T03:05:38.067Z,20.88
2018-07-10T03:06:38.020Z,20.88
2018-07-10T03:07:38.137Z,20.88
2018-07-10T03:08:38.078Z,20.81
2018-07-10T03:09:38.188Z,20.88
2018-07-10T03:10:38.037Z,20.81
2018-07-10T03:11:38.155Z,20.81
2018-07-10T03:12:38.171Z,20.88
2018-07-10T03:13:38.001Z,20.88
2018-07-10T03:14:38.106Z,20.88
2018-07-10T03:15:38.087Z,20.81
2018-07-10T03:16:37.993Z,20.81
2018-07-10T03:17:38.180Z,20.81
2018-07-10T03:18:38.054Z,20.81
2018-07-10T03:19:38.121Z,20.81
2018-07-10T03:20:38.073Z,20.81
2018-07-10T03:21:38.333Z,20.75
2018-07-10T03:22:38.055Z,20.81
2018-07-10T03:23:38.131Z,20.81
2018-07-10T03:24:38.014Z,20.81
2018-07-10T03:25:38.035Z,20.81
2018-07-10T03:26:38.044Z,20.88
2018-07-10T03:27:38.014Z,20.81
2018-07-10T03:28:37.991Z,20.88
2018-07-10T03:29:38.030Z,20.81
2018-07-10T03:30:38.036Z,20.81
2018-07-10T03:31:38.020Z,20.88
2018-07-10T03:32:38.024Z,20.81
2018-07-10T03:33:38.042Z,20.81
2018-07-10T03:34:38.006Z,20.88
2018-07-10T03:35:38.021Z,20.81
2018-07-10T03:36:38.103Z,20.81
2018-07-10T03:37:38.431Z,20.81
2018-07-10T03:38:38.028Z,20.81
2018-07-10T03:39:38.054Z,20.81
2018-07-10T03:40:38.029Z,20.81
2018-07-10T03:41:38.028Z,20.88
2018-07-10T03:42:38.030Z,20.88
2018-07-10T03:43:38.034Z,20.81
2018-07-10T03:44:38.393Z,20.81
2018-07-10T03:45:38.101Z,20.81
2018-07-10T03:46:38.027Z,20.75
2018-07-10T03:47:38.099Z,20.81
2018-07-10T03:48:38.213Z,20.75
2018-07-10T03:49:38.158Z,20.81
2018-07-10T03:50:38.077Z,20.81
2018-07-10T03:51:38.059Z,20.75
2018-07-10T03:52:38.108Z,20.69
2018-07-10T03:53:38.081Z,20.69
2018-07-10T03:54:38.044Z,20.69
2018-07-10T03:55:38.214Z,20.69
2018-07-10T03:56:38.105Z,20.69
2018-07-10T03:57:38.205Z,20.69
2018-07-10T03:58:38.091Z,20.69
2018-07-10T03:59:38.095Z,20.69
2018-07-10T04:00:38.119Z,20.69
2018-07-10T04:01:38.481Z,20.69
2018-07-10T04:02:38.052Z,20.69
2018-07-10T04:03:38.023Z,20.69
2018-07-10T04:04:38.103Z,20.69
2018-07-10T04:05:38.231Z,20.69
2018-07-10T04:06:38.061Z,20.75
2018-07-10T04:07:38.069Z,20.69
2018-07-10T04:08:38.157Z,20.69
2018-07-10T04:09:38.060Z,20.69
2018-07-10T04:10:38.031Z,20.69
2018-07-10T04:11:38.414Z,20.69
2018-07-10T04:12:38.043Z,20.69
2018-07-10T04:13:38.062Z,20.62
2018-07-10T04:14:38.073Z,20.69
2018-07-10T04:15:38.093Z,20.69
2018-07-10T04:16:38.017Z,20.69
2018-07-10T04:17:38.145Z,20.69
2018-07-10T04:18:38.142Z,20.62
2018-07-10T04:19:38.119Z,20.69
2018-07-10T04:20:38.097Z,20.62
2018-07-10T04:21:38.073Z,20.62
2018-07-10T04:22:38.124Z,20.62
2018-07-10T04:23:38.050Z,20.62
2018-07-10T04:24:38.038Z,20.56
2018-07-10T04:25:38.098Z,20.56
2018-07-10T04:26:38.093Z,20.56
2018-07-10T04:27:38.036Z,20.62
2018-07-10T04:28:38.500Z,20.56
2018-07-10T04:29:38.101Z,20.62
2018-07-10T04:30:38.063Z,20.62
2018-07-10T04:31:38.182Z,20.56
2018-07-10T04:32:38.047Z,20.62
2018-07-10T04:33:38.084Z,20.62
2018-07-10T04:34:38.119Z,20.56
2018-07-10T04:35:38.063Z,20.56
2018-07-10T04:36:41.464Z,20.56
2018-07-10T04:37:38.077Z,20.56
2018-07-10T04:38:38.114Z,20.62
2018-07-10T04:39:38.111Z,20.62
2018-07-10T04:40:38.075Z,20.62
2018-07-10T04:41:38.041Z,20.56
2018-07-10T04:42:38.155Z,20.56
2018-07-10T04:43:38.258Z,20.56
2018-07-10T04:44:38.077Z,20.56
2018-07-10T04:45:38.067Z,20.56
2018-07-10T04:46:38.089Z,20.56
2018-07-10T04:47:38.049Z,20.5
2018-07-10T04:48:38.061Z,20.5
2018-07-10T04:49:38.059Z,20.56
2018-07-10T04:50:40.168Z,20.5
2018-07-10T04:51:38.045Z,20.56
2018-07-10T04:52:38.184Z,20.56
2018-07-10T04:53:38.060Z,20.5
2018-07-10T04:54:38.069Z,20.56
2018-07-10T04:55:38.123Z,20.56
2018-07-10T04:56:38.059Z,20.56
2018-07-10T04:57:38.094Z,20.62
2018-07-10T04:58:38.066Z,20.62
2018-07-10T04:59:38.129Z,20.62
2018-07-10T05:00:38.054Z,20.62
2018-07-10T05:01:38.254Z,20.62
2018-07-10T05:02:38.050Z,20.62
2018-07-10T05:03:38.173Z,20.62
2018-07-10T05:04:38.100Z,20.62
2018-07-10T05:05:38.172Z,20.62
2018-07-10T05:06:38.120Z,20.69
2018-07-10T05:07:38.278Z,20.62
2018-07-10T05:08:38.065Z,20.56
2018-07-10T05:09:38.207Z,20.62
2018-07-10T05:10:38.146Z,20.62
2018-07-10T05:11:38.132Z,20.62
2018-07-10T05:12:38.071Z,20.62
2018-07-10T05:13:38.160Z,20.62
2018-07-10T05:14:38.136Z,20.56
2018-07-10T05:15:38.105Z,20.62
2018-07-10T05:16:38.118Z,20.56
2018-07-10T05:17:38.513Z,20.5
2018-07-10T05:18:38.087Z,20.44
2018-07-10T05:19:38.075Z,20.5
2018-07-10T05:20:38.089Z,20.5
2018-07-10T05:21:38.126Z,20.5
2018-07-10T05:22:38.088Z,20.5
2018-07-10T05:23:38.094Z,20.56
2018-07-10T05:24:38.070Z,20.56
2018-07-10T05:25:38.091Z,20.5
2018-07-10T05:26:38.062Z,20.5
2018-07-10T05:27:38.113Z,20.5
2018-07-10T05:28:38.323Z,20.56
2018-07-10T05:29:38.077Z,20.5
2018-07-10T05:30:38.080Z,20.56
2018-07-10T05:31:38.200Z,20.56
2018-07-10T05:32:38.105Z,20.56
2018-07-10T05:33:38.089Z,20.56
2018-07-10T05:34:38.116Z,20.56
2018-07-10T05:35:38.086Z,20.56
2018-07-10T05:36:38.086Z,20.56
2018-07-10T05:37:38.070Z,20.56
2018-07-10T05:38:38.167Z,20.5
2018-07-10T05:39:38.282Z,20.56
2018-07-10T05:40:38.212Z,20.56
2018-07-10T05:41:38.088Z,20.56
2018-07-10T05:42:38.122Z,20.56
2018-07-10T05:43:38.327Z,20.56
2018-07-10T05:44:38.206Z,20.44
2018-07-10T05:45:38.158Z,20.5
2018-07-10T05:46:38.098Z,20.5
2018-07-10T05:47:38.107Z,20.5
2018-07-10T05:48:38.122Z,20.5
2018-07-10T05:49:39.242Z,20.5
2018-07-10T05:50:38.122Z,20.56
2018-07-10T05:51:38.468Z,20.56
2018-07-10T05:52:38.134Z,20.56
2018-07-10T05:53:38.124Z,20.56
2018-07-10T05:54:38.120Z,20.5
2018-07-10T05:55:38.137Z,20.56
2018-07-10T05:56:38.141Z,20.5
2018-07-10T05:57:38.090Z,20.5
2018-07-10T05:58:38.466Z,20.5
2018-07-10T05:59:38.113Z,20.5
2018-07-10T06:00:38.174Z,20.5
2018-07-10T06:01:38.249Z,20.56
2018-07-10T06:02:38.138Z,20.56
2018-07-10T06:03:38.149Z,20.56
2018-07-10T06:04:38.544Z,20.56
2018-07-10T06:05:38.160Z,20.5
2018-07-10T06:06:40.318Z,20.56
2018-07-10T06:07:38.104Z,20.5
2018-07-10T06:08:38.118Z,20.44
2018-07-10T06:09:38.300Z,20.44
2018-07-10T06:10:38.236Z,20.44
2018-07-10T06:11:38.114Z,20.37
2018-07-10T06:12:38.124Z,20.37
2018-07-10T06:13:38.112Z,20.31
2018-07-10T06:14:38.317Z,20.37
2018-07-10T06:15:38.140Z,20.37
2018-07-10T06:16:38.134Z,20.31
2018-07-10T06:17:38.117Z,20.31
2018-07-10T06:18:38.208Z,20.25
2018-07-10T06:19:38.183Z,20.25
2018-07-10T06:20:38.127Z,20.25
2018-07-10T06:21:38.127Z,20.31
2018-07-10T06:22:38.239Z,20.31
2018-07-10T06:23:38.183Z,20.31
2018-07-10T06:24:38.184Z,20.25
2018-07-10T06:25:38.104Z,20.31
2018-07-10T06:26:38.128Z,20.31
2018-07-10T06:27:38.115Z,20.31
2018-07-10T06:28:38.140Z,20.31
2018-07-10T06:29:38.109Z,20.25
2018-07-10T06:30:38.160Z,20.19
2018-07-10T06:31:38.155Z,20.12
2018-07-10T06:32:38.200Z,20.12
2018-07-10T06:33:38.224Z,20.06
2018-07-10T06:34:38.154Z,20.06
2018-07-10T06:35:38.160Z,20.06
2018-07-10T06:36:38.135Z,20.12
2018-07-10T06:37:38.119Z,20.12
2018-07-10T06:38:38.245Z,20.12
2018-07-10T06:39:38.582Z,20.19
2018-07-10T06:40:38.113Z,20.12
2018-07-10T06:41:38.121Z,20.12
2018-07-10T06:42:38.137Z,20.12
2018-07-10T06:43:38.153Z,20.12
2018-07-10T06:44:38.147Z,20.19
2018-07-10T06:45:38.123Z,20.19
2018-07-10T06:46:38.109Z,20.19
2018-07-10T06:47:38.174Z,20.06
2018-07-10T06:48:38.476Z,20.06
2018-07-10T06:49:38.217Z,20
2018-07-10T06:50:38.176Z,20
2018-07-10T06:51:38.381Z,19.94
2018-07-10T06:52:40.029Z,19.87
2018-07-10T06:53:39.180Z,19.81
2018-07-10T06:54:38.163Z,19.75
2018-07-10T06:55:38.278Z,19.69
2018-07-10T06:56:38.161Z,19.69
2018-07-10T06:57:38.181Z,19.69
2018-07-10T06:58:38.203Z,19.62
2018-07-10T06:59:38.221Z,19.5
2018-07-10T07:00:38.394Z,19.44
2018-07-10T07:01:38.336Z,19.37
2018-07-10T07:02:38.178Z,19.37
2018-07-10T07:03:38.137Z,19.25
2018-07-10T07:04:38.469Z,19.31
2018-07-10T07:05:38.230Z,19.31
2018-07-10T07:06:38.417Z,19.31
2018-07-10T07:07:38.795Z,19.31
2018-07-10T07:08:38.215Z,19.31
2018-07-10T07:09:38.188Z,19.19
2018-07-10T07:10:38.412Z,19.19
2018-07-10T07:11:38.484Z,19.06
2018-07-10T07:12:38.133Z,19.06
2018-07-10T07:13:38.174Z,19.06
2018-07-10T07:14:38.143Z,19
2018-07-10T07:15:38.255Z,19.06
2018-07-10T07:16:38.374Z,19
2018-07-10T07:17:38.243Z,18.94
2018-07-10T07:18:38.328Z,18.87
2018-07-10T07:19:38.282Z,18.81
2018-07-10T07:20:38.160Z,18.69
2018-07-10T07:21:38.199Z,18.56
2018-07-10T07:22:38.267Z,18.37
2018-07-10T07:23:38.614Z,18.37
2018-07-10T07:24:38.177Z,18.31
2018-07-10T07:25:38.237Z,18.19
2018-07-10T07:26:38.191Z,18.19
2018-07-10T07:27:38.325Z,18.19
2018-07-10T07:28:38.213Z,18.12
2018-07-10T07:29:38.227Z,18.06
2018-07-10T07:30:38.237Z,18.06
2018-07-10T07:31:38.140Z,18.06
2018-07-10T07:32:38.347Z,18
2018-07-10T07:33:38.220Z,18.06
2018-07-10T07:34:38.181Z,18.12
2018-07-10T07:35:38.196Z,18.12
2018-07-10T07:36:38.271Z,18.12
2018-07-10T07:37:38.186Z,18.19
2018-07-10T07:38:38.261Z,18.12
2018-07-10T07:39:38.384Z,18.19
2018-07-10T07:40:38.219Z,18.19
2018-07-10T07:41:38.235Z,18.25
2018-07-10T07:42:38.242Z,18.31
2018-07-10T07:43:38.782Z,18.31
2018-07-10T07:44:38.196Z,18.31
2018-07-10T07:45:38.224Z,18.37
2018-07-10T07:46:38.186Z,18.37
2018-07-10T07:47:38.205Z,18.44
2018-07-10T07:48:38.199Z,18.5
2018-07-10T07:49:38.195Z,18.5
2018-07-10T07:50:38.215Z,18.56
2018-07-10T07:51:38.251Z,18.62
2018-07-10T07:52:39.127Z,18.75
2018-07-10T07:53:38.183Z,18.75
2018-07-10T07:54:38.263Z,18.81
2018-07-10T07:55:38.480Z,18.87
2018-07-10T07:56:38.190Z,18.94
2018-07-10T07:57:38.326Z,19
2018-07-10T07:58:38.205Z,19
2018-07-10T07:59:38.204Z,19
2018-07-10T08:00:38.224Z,18.94
2018-07-10T08:01:38.437Z,18.81
2018-07-10T08:02:38.265Z,18.87
2018-07-10T08:03:38.218Z,18.81
2018-07-10T08:04:38.282Z,18.75
2018-07-10T08:05:38.260Z,18.75
2018-07-10T08:06:38.612Z,18.62
2018-07-10T08:07:38.333Z,18.5
2018-07-10T08:08:38.298Z,18.5
2018-07-10T08:09:38.270Z,18.5
2018-07-10T08:10:38.243Z,18.44
2018-07-10T08:11:38.256Z,18.31
2018-07-10T08:12:38.233Z,18.12
2018-07-10T08:13:38.206Z,18.12
2018-07-10T08:14:38.332Z,18.06
2018-07-10T08:15:38.317Z,18.12
2018-07-10T08:16:38.204Z,18.06
2018-07-10T08:17:38.294Z,18
2018-07-10T08:18:38.214Z,18
2018-07-10T08:19:38.251Z,17.94
2018-07-10T08:20:38.217Z,18
2018-07-10T08:21:38.261Z,17.94
2018-07-10T08:22:38.242Z,17.94
2018-07-10T08:23:38.234Z,18
2018-07-10T08:24:38.913Z,17.94
2018-07-10T08:25:38.314Z,17.94
2018-07-10T08:26:38.207Z,17.87
2018-07-10T08:27:38.214Z,17.87
2018-07-10T08:28:38.203Z,17.81
2018-07-10T08:29:38.190Z,17.75
2018-07-10T08:30:38.226Z,17.81
2018-07-10T08:31:38.421Z,17.81
2018-07-10T08:32:38.190Z,17.87
2018-07-10T08:33:39.027Z,17.87
2018-07-10T08:34:38.294Z,17.87
2018-07-10T08:35:38.244Z,17.75
2018-07-10T08:36:38.219Z,17.81
2018-07-10T08:37:38.276Z,17.81
2018-07-10T08:38:38.251Z,17.81
2018-07-10T08:39:38.380Z,17.87
2018-07-10T08:40:38.218Z,17.81
2018-07-10T08:41:38.233Z,17.87
2018-07-10T08:42:38.215Z,17.94
2018-07-10T08:43:38.249Z,18
2018-07-10T08:44:38.532Z,18
2018-07-10T08:45:38.202Z,18.06
2018-07-10T08:46:38.234Z,18.12
2018-07-10T08:47:38.247Z,18.12
2018-07-10T08:48:38.218Z,18.12
2018-07-10T08:49:38.492Z,18.19
2018-07-10T08:50:38.558Z,18.25
2018-07-10T08:51:38.243Z,18.19
2018-07-10T08:52:38.273Z,18.06
2018-07-10T08:53:38.354Z,18.06
2018-07-10T08:54:38.216Z,18
2018-07-10T08:55:38.225Z,18.06
2018-07-10T08:56:38.217Z,18.06
2018-07-10T08:57:38.208Z,18.06
2018-07-10T08:58:38.201Z,18.06
2018-07-10T08:59:38.235Z,18.06
2018-07-10T09:00:38.208Z,18
2018-07-10T09:01:38.235Z,18
2018-07-10T09:02:38.241Z,18
2018-07-10T09:03:38.233Z,18
2018-07-10T09:04:38.203Z,18.12
2018-07-10T09:05:38.271Z,18.19
2018-07-10T09:06:38.768Z,18.19
2018-07-10T09:07:38.205Z,18.25
2018-07-10T09:08:38.222Z,18.25
2018-07-10T09:09:38.281Z,18.37
2018-07-10T09:10:38.224Z,18.31
2018-07-10T09:11:38.231Z,18.31
2018-07-10T09:12:38.244Z,18.31
2018-07-10T09:13:38.253Z,18.31
2018-07-10T09:14:38.361Z,18.37
2018-07-10T09:15:38.853Z,18.37
2018-07-10T09:16:38.216Z,18.31
2018-07-10T09:17:38.285Z,18.31
2018-07-10T09:18:38.235Z,18.31
2018-07-10T09:19:38.293Z,18.25
2018-07-10T09:20:38.426Z,18.25
2018-07-10T09:21:38.211Z,18.25
2018-07-10T09:22:38.369Z,18.19
2018-07-10T09:23:38.276Z,18.12
2018-07-10T09:24:38.420Z,18.12
2018-07-10T09:25:38.256Z,18.12
2018-07-10T09:26:38.259Z,18
2018-07-10T09:27:38.314Z,18.06
2018-07-10T09:28:38.257Z,18.06
2018-07-10T09:29:38.295Z,18.06
2018-07-10T09:30:38.258Z,18.06
2018-07-10T09:31:38.265Z,18
2018-07-10T09:32:38.300Z,18
2018-07-10T09:33:39.229Z,18.06
2018-07-10T09:34:38.535Z,18.06
2018-07-10T09:35:38.251Z,18.12
2018-07-10T09:36:38.283Z,18.12
2018-07-10T09:37:38.280Z,18.12
2018-07-10T09:38:38.267Z,18.19
2018-07-10T09:39:38.221Z,18.25
2018-07-10T09:40:38.317Z,18.31
2018-07-10T09:41:38.323Z,18.31
2018-07-10T09:42:38.229Z,18.31
2018-07-10T09:43:38.266Z,18.37
2018-07-10T09:44:38.263Z,18.37
2018-07-10T09:45:38.278Z,18.37
2018-07-10T09:46:38.240Z,18.31
2018-07-10T09:47:38.341Z,18.37
2018-07-10T09:48:38.258Z,18.44
2018-07-10T09:49:38.259Z,18.5
2018-07-10T09:50:38.264Z,18.56
2018-07-10T09:51:38.262Z,18.69
2018-07-10T09:52:38.297Z,18.69
2018-07-10T09:53:38.265Z,18.69
2018-07-10T09:54:38.853Z,18.75
2018-07-10T09:55:38.350Z,18.81
2018-07-10T09:56:38.413Z,18.81
2018-07-10T09:57:38.279Z,18.75
2018-07-10T09:58:38.369Z,18.81
2018-07-10T09:59:38.321Z,18.81
2018-07-10T10:00:38.273Z,18.81
2018-07-10T10:01:38.341Z,18.87
2018-07-10T10:02:38.322Z,18.81
2018-07-10T10:03:38.299Z,18.81
2018-07-10T10:04:38.253Z,18.81
2018-07-10T10:05:38.268Z,18.87
2018-07-10T10:06:38.302Z,18.94
2018-07-10T10:07:38.263Z,18.94
2018-07-10T10:08:38.248Z,19.06
2018-07-10T10:09:38.441Z,19.06
2018-07-10T10:10:38.257Z,19
2018-07-10T10:11:38.391Z,19.12
2018-07-10T10:12:38.296Z,19.25
2018-07-10T10:13:38.258Z,19.31
2018-07-10T10:14:38.238Z,19.5
2018-07-10T10:15:38.322Z,19.44
2018-07-10T10:16:38.253Z,19.44
2018-07-10T10:17:38.458Z,19.56
2018-07-10T10:18:38.386Z,19.62
2018-07-10T10:19:38.333Z,19.69
2018-07-10T10:20:38.257Z,19.69
2018-07-10T10:21:38.461Z,19.62
2018-07-10T10:22:38.244Z,19.62
2018-07-10T10:23:38.555Z,19.62
2018-07-10T10:24:38.377Z,19.62
2018-07-10T10:25:38.654Z,19.62
2018-07-10T10:26:39.416Z,19.69
2018-07-10T10:27:38.429Z,19.69
2018-07-10T10:28:38.396Z,19.62
2018-07-10T10:29:38.247Z,19.56
2018-07-10T10:30:38.441Z,19.56
2018-07-10T10:31:38.410Z,19.62
2018-07-10T10:32:38.410Z,19.62
2018-07-10T10:33:38.264Z,19.62
2018-07-10T10:34:38.268Z,19.5
2018-07-10T10:35:38.791Z,19.56
2018-07-10T10:36:38.563Z,19.56
2018-07-10T10:37:38.459Z,19.5
2018-07-10T10:38:38.719Z,19.56
2018-07-10T10:39:38.462Z,19.56
2018-07-10T10:40:38.398Z,19.69
2018-07-10T10:41:38.479Z,19.81
2018-07-10T10:42:38.411Z,19.81
2018-07-10T10:43:38.378Z,19.87
2018-07-10T10:44:38.310Z,19.87
2018-07-10T10:45:38.456Z,19.81
2018-07-10T10:46:38.444Z,19.75
2018-07-10T10:47:38.439Z,19.75
2018-07-10T10:48:38.440Z,19.75
2018-07-10T10:49:38.847Z,19.81
2018-07-10T10:50:38.297Z,19.81
2018-07-10T10:51:38.433Z,19.87
2018-07-10T10:52:38.602Z,19.81
2018-07-10T10:53:38.406Z,19.81
2018-07-10T10:54:38.597Z,19.69
2018-07-10T10:55:38.322Z,19.69
2018-07-10T10:56:38.443Z,19.69
2018-07-10T10:57:38.354Z,19.75
2018-07-10T10:58:38.343Z,19.81
2018-07-10T10:59:38.423Z,19.87
2018-07-10T11:00:38.529Z,19.94
2018-07-10T11:01:38.450Z,19.94
2018-07-10T11:02:38.814Z,19.94
2018-07-10T11:03:38.444Z,20
2018-07-10T11:04:38.459Z,20
2018-07-10T11:05:38.686Z,20
2018-07-10T11:06:38.499Z,20
2018-07-10T11:07:38.430Z,20.06
2018-07-10T11:08:38.323Z,20.06
2018-07-10T11:09:38.324Z,20.12
2018-07-10T11:10:38.329Z,20.12
2018-07-10T11:11:38.300Z,20.19
2018-07-10T11:12:38.468Z,20.12
2018-07-10T11:13:38.299Z,20.19
2018-07-10T11:14:38.419Z,20.19
2018-07-10T11:15:38.322Z,20.31
2018-07-10T11:16:38.375Z,20.31
2018-07-10T11:17:38.335Z,20.31
2018-07-10T11:18:38.445Z,20.37
2018-07-10T11:19:38.401Z,20.44
2018-07-10T11:20:38.314Z,20.44
2018-07-10T11:21:38.325Z,20.44
2018-07-10T11:22:38.421Z,20.56
2018-07-10T11:23:38.347Z,20.5
2018-07-10T11:24:38.428Z,20.37
2018-07-10T11:25:38.321Z,20.44
2018-07-10T11:26:38.302Z,20.5
2018-07-10T11:27:38.323Z,20.62
2018-07-10T11:28:38.509Z,20.75
2018-07-10T11:29:38.321Z,20.62
2018-07-10T11:30:38.434Z,20.5
2018-07-10T11:31:38.440Z,20.62
2018-07-10T11:32:38.366Z,20.69
2018-07-10T11:33:38.304Z,20.69
2018-07-10T11:34:38.321Z,20.81
2018-07-10T11:35:38.327Z,20.88
2018-07-10T11:36:38.330Z,20.94
2018-07-10T11:37:38.325Z,21
2018-07-10T11:38:38.468Z,21.12
2018-07-10T11:39:38.307Z,21.19
2018-07-10T11:40:38.344Z,21.19
2018-07-10T11:41:38.343Z,21.19
2018-07-10T11:42:38.337Z,21.19
2018-07-10T11:43:38.332Z,21.19
2018-07-10T11:44:38.300Z,21.25
2018-07-10T11:45:38.722Z,21.12
2018-07-10T11:46:39.474Z,21.19
2018-07-10T11:47:38.358Z,21.31
2018-07-10T11:48:38.309Z,21.5
2018-07-10T11:49:38.382Z,21.56
2018-07-10T11:50:38.371Z,21.75
2018-07-10T11:51:38.874Z,21.75
2018-07-10T11:52:38.370Z,21.75
2018-07-10T11:53:38.378Z,21.81
2018-07-10T11:54:38.446Z,21.5
2018-07-10T11:55:38.504Z,21.5
2018-07-10T11:56:38.367Z,21.44
2018-07-10T11:57:38.387Z,21.5
2018-07-10T11:58:38.525Z,21.69
2018-07-10T11:59:39.077Z,21.75
2018-07-10T12:00:38.369Z,21.69
2018-07-10T12:01:38.366Z,21.75
2018-07-10T12:02:38.395Z,21.75
2018-07-10T12:03:38.375Z,21.75
2018-07-10T12:04:38.312Z,21.75
2018-07-10T12:05:38.571Z,21.69
2018-07-10T12:06:38.336Z,21.69
2018-07-10T12:07:38.441Z,21.62
2018-07-10T12:08:38.340Z,21.44
2018-07-10T12:09:38.343Z,21.31
2018-07-10T12:10:38.344Z,21.25
2018-07-10T12:11:38.332Z,21.31
2018-07-10T12:12:38.964Z,21.37
2018-07-10T12:13:38.341Z,21.37
2018-07-10T12:14:38.379Z,21.31
2018-07-10T12:15:38.436Z,21.44
2018-07-10T12:16:38.553Z,21.5
2018-07-10T12:17:38.358Z,21.44
2018-07-10T12:18:38.465Z,21.44
2018-07-10T12:19:38.430Z,21.37
2018-07-10T12:20:38.485Z,21.25
2018-07-10T12:21:38.524Z,21.25
2018-07-10T12:22:38.443Z,21.31
2018-07-10T12:23:38.370Z,21.31
2018-07-10T12:24:38.506Z,21.37
2018-07-10T12:25:38.644Z,21.37
2018-07-10T12:26:38.553Z,21.44
2018-07-10T12:27:38.903Z,21.5
2018-07-10T12:28:38.360Z,21.56
2018-07-10T12:29:38.569Z,21.62
2018-07-10T12:30:38.377Z,21.69
2018-07-10T12:31:38.628Z,21.69
2018-07-10T12:32:38.435Z,21.69
2018-07-10T12:33:38.425Z,21.62
2018-07-10T12:34:38.341Z,21.75
2018-07-10T12:35:38.569Z,21.75
2018-07-10T12:36:38.606Z,21.87
2018-07-10T12:37:38.393Z,21.87
2018-07-10T12:38:38.342Z,21.81
2018-07-10T12:39:38.492Z,21.87
2018-07-10T12:40:38.399Z,21.75
2018-07-10T12:41:38.702Z,21.75
2018-07-10T12:42:38.562Z,21.75
2018-07-10T12:43:38.358Z,21.69
2018-07-10T12:44:38.550Z,21.69
2018-07-10T12:45:38.460Z,21.75
2018-07-10T12:46:38.372Z,21.75
2018-07-10T12:47:38.514Z,21.75
2018-07-10T12:48:38.501Z,21.81
2018-07-10T12:49:38.643Z,21.81
2018-07-10T12:50:38.370Z,21.81
2018-07-10T12:51:38.349Z,21.69
2018-07-10T12:52:38.359Z,21.81
2018-07-10T12:53:38.435Z,21.81
2018-07-10T12:54:38.485Z,21.62
2018-07-10T12:55:38.375Z,21.62
2018-07-10T12:56:38.384Z,21.56
2018-07-10T12:57:38.352Z,21.62